sensor_id;sensor_type;location;lat;lon;timestamp;pressure;altitude;pressure_sealevel;temperature;humidity
78149;BME280;67396;42.664;23.382;2023-05-27T00:01:53;95044.41;;;14.59;74.02
78149;BME280;67396;42.664;23.382;2023-05-27T00:04:18;95051.47;;;14.60;73.86
78149;BME280;67396;42.664;23.382;2023-05-27T00:06:44;95055.03;;;14.61;73.44
78149;BME280;67396;42.664;23.382;2023-05-27T00:09:09;95049.94;;;14.59;72.65
78149;BME280;67396;42.664;23.382;2023-05-27T00:11:35;95043.19;;;14.60;71.93
78149;BME280;67396;42.664;23.382;2023-05-27T00:14:00;95046.34;;;14.62;71.35
78149;BME280;67396;42.664;23.382;2023-05-27T00:16:26;95046.72;;;14.61;70.97
78149;BME280;67396;42.664;23.382;2023-05-27T00:18:51;95044.75;;;14.65;70.19
78149;BME280;67396;42.664;23.382;2023-05-27T00:21:18;95023.84;;;14.60;70.30
78149;BME280;67396;42.664;23.382;2023-05-27T00:23:45;95037.34;;;14.51;70.96
78149;BME280;67396;42.664;23.382;2023-05-27T00:26:11;95021.69;;;14.41;71.41
78149;BME280;67396;42.664;23.382;2023-05-27T00:28:36;95027.44;;;14.57;72.68
78149;BME280;67396;42.664;23.382;2023-05-27T00:31:02;95023.66;;;14.37;73.80
78149;BME280;67396;42.664;23.382;2023-05-27T00:33:27;95029.56;;;14.36;74.24
78149;BME280;67396;42.664;23.382;2023-05-27T00:35:53;95021.25;;;14.43;74.62
78149;BME280;67396;42.664;23.382;2023-05-27T00:38:18;95013.78;;;14.40;74.79
78149;BME280;67396;42.664;23.382;2023-05-27T00:40:44;95006.88;;;14.14;75.85
78149;BME280;67396;42.664;23.382;2023-05-27T00:43:10;95009.25;;;14.12;76.43
78149;BME280;67396;42.664;23.382;2023-05-27T00:45:36;94998.22;;;14.12;76.63
78149;BME280;67396;42.664;23.382;2023-05-27T00:48:02;95006.50;;;14.08;77.46
78149;BME280;67396;42.664;23.382;2023-05-27T00:50:28;95002.56;;;14.09;77.03
78149;BME280;67396;42.664;23.382;2023-05-27T00:52:54;94992.28;;;14.13;76.78
78149;BME280;67396;42.664;23.382;2023-05-27T00:55:25;94999.84;;;14.06;77.31
78149;BME280;67396;42.664;23.382;2023-05-27T00:57:51;94991.91;;;14.11;77.36
78149;BME280;67396;42.664;23.382;2023-05-27T01:00:22;94987.09;;;14.19;76.79
78149;BME280;67396;42.664;23.382;2023-05-27T01:02:48;94981.66;;;14.12;75.83
78149;BME280;67396;42.664;23.382;2023-05-27T01:05:16;94986.00;;;14.13;76.00
78149;BME280;67396;42.664;23.382;2023-05-27T01:07:59;94977.88;;;14.36;75.17
78149;BME280;67396;42.664;23.382;2023-05-27T01:15:31;94973.50;;;14.83;72.59
78149;BME280;67396;42.664;23.382;2023-05-27T01:17:59;94965.53;;;14.89;71.72
78149;BME280;67396;42.664;23.382;2023-05-27T01:20:28;94960.28;;;14.98;71.80
78149;BME280;67396;42.664;23.382;2023-05-27T01:22:54;94954.31;;;15.03;71.60
78149;BME280;67396;42.664;23.382;2023-05-27T01:25:22;94952.19;;;15.14;71.27
78149;BME280;67396;42.664;23.382;2023-05-27T01:27:48;94940.97;;;15.28;70.26
78149;BME280;67396;42.664;23.382;2023-05-27T01:30:14;94939.97;;;15.42;69.39
78149;BME280;67396;42.664;23.382;2023-05-27T01:32:48;94944.09;;;15.61;67.02
78149;BME280;67396;42.664;23.382;2023-05-27T01:35:24;94938.09;;;15.66;67.58
78149;BME280;67396;42.664;23.382;2023-05-27T01:37:54;94934.13;;;15.67;67.58
78149;BME280;67396;42.664;23.382;2023-05-27T01:40:20;94928.44;;;15.77;64.91
78149;BME280;67396;42.664;23.382;2023-05-27T01:42:47;94922.84;;;15.81;63.66
78149;BME280;67396;42.664;23.382;2023-05-27T01:45:14;94928.38;;;15.81;62.74
78149;BME280;67396;42.664;23.382;2023-05-27T01:47:39;94919.97;;;15.88;61.97
78149;BME280;67396;42.664;23.382;2023-05-27T01:50:06;94926.22;;;15.92;62.26
78149;BME280;67396;42.664;23.382;2023-05-27T01:52:32;94921.38;;;16.00;62.48
78149;BME280;67396;42.664;23.382;2023-05-27T01:54:57;94929.34;;;15.94;65.07
78149;BME280;67396;42.664;23.382;2023-05-27T01:57:24;94924.91;;;16.00;65.19
78149;BME280;67396;42.664;23.382;2023-05-27T01:59:50;94928.03;;;16.02;66.90
78149;BME280;67396;42.664;23.382;2023-05-27T02:02:16;94933.06;;;15.84;68.09
78149;BME280;67396;42.664;23.382;2023-05-27T02:04:41;94941.97;;;15.72;68.45
78149;BME280;67396;42.664;23.382;2023-05-27T02:07:07;94932.47;;;15.73;68.05
78149;BME280;67396;42.664;23.382;2023-05-27T02:09:32;94929.31;;;15.71;67.98
78149;BME280;67396;42.664;23.382;2023-05-27T02:11:57;94938.34;;;15.75;67.46
78149;BME280;67396;42.664;23.382;2023-05-27T02:14:23;94942.75;;;15.72;68.12
78149;BME280;67396;42.664;23.382;2023-05-27T02:16:49;94946.09;;;15.60;69.04
78149;BME280;67396;42.664;23.382;2023-05-27T02:19:15;94933.66;;;15.72;68.16
78149;BME280;67396;42.664;23.382;2023-05-27T02:21:40;94933.19;;;15.77;67.67
78149;BME280;67396;42.664;23.382;2023-05-27T02:24:06;94932.81;;;15.75;68.74
78149;BME280;67396;42.664;23.382;2023-05-27T02:26:31;94930.91;;;15.72;69.07
78149;BME280;67396;42.664;23.382;2023-05-27T02:28:57;94933.91;;;15.81;68.72
78149;BME280;67396;42.664;23.382;2023-05-27T02:31:22;94930.22;;;15.91;67.52
78149;BME280;67396;42.664;23.382;2023-05-27T02:33:48;94936.94;;;15.90;67.35
78149;BME280;67396;42.664;23.382;2023-05-27T02:36:13;94940.06;;;15.92;67.28
78149;BME280;67396;42.664;23.382;2023-05-27T02:38:39;94935.75;;;15.91;67.89
78149;BME280;67396;42.664;23.382;2023-05-27T02:41:04;94939.59;;;15.70;69.56
78149;BME280;67396;42.664;23.382;2023-05-27T02:43:30;94938.00;;;15.73;69.04
78149;BME280;67396;42.664;23.382;2023-05-27T02:45:55;94938.34;;;15.75;68.50
78149;BME280;67396;42.664;23.382;2023-05-27T02:48:21;94937.47;;;15.55;69.57
78149;BME280;67396;42.664;23.382;2023-05-27T02:50:46;94942.97;;;15.24;71.18
78149;BME280;67396;42.664;23.382;2023-05-27T02:53:12;94949.78;;;14.86;73.05
78149;BME280;67396;42.664;23.382;2023-05-27T02:55:37;94935.91;;;14.55;74.90
78149;BME280;67396;42.664;23.382;2023-05-27T02:58:03;94939.22;;;14.36;75.71
78149;BME280;67396;42.664;23.382;2023-05-27T03:00:30;94937.09;;;14.54;75.46
78149;BME280;67396;42.664;23.382;2023-05-27T03:02:56;94928.25;;;14.70;75.09
78149;BME280;67396;42.664;23.382;2023-05-27T03:05:21;94928.94;;;14.78;74.66
78149;BME280;67396;42.664;23.382;2023-05-27T03:07:47;94927.88;;;15.02;74.07
78149;BME280;67396;42.664;23.382;2023-05-27T03:10:12;94930.66;;;15.02;73.82
78149;BME280;67396;42.664;23.382;2023-05-27T03:12:38;94925.47;;;15.04;73.90
78149;BME280;67396;42.664;23.382;2023-05-27T03:15:03;94924.91;;;15.16;73.40
78149;BME280;67396;42.664;23.382;2023-05-27T03:17:29;94929.16;;;15.24;72.42
78149;BME280;67396;42.664;23.382;2023-05-27T03:19:54;94933.81;;;15.31;72.93
78149;BME280;67396;42.664;23.382;2023-05-27T03:22:20;94937.06;;;15.22;72.63
78149;BME280;67396;42.664;23.382;2023-05-27T03:24:46;94945.53;;;14.78;74.28
78149;BME280;67396;42.664;23.382;2023-05-27T03:27:12;94943.50;;;14.48;75.96
78149;BME280;67396;42.664;23.382;2023-05-27T03:29:37;94938.91;;;14.27;77.51
78149;BME280;67396;42.664;23.382;2023-05-27T03:32:03;94944.59;;;14.09;77.91
78149;BME280;67396;42.664;23.382;2023-05-27T03:34:29;94948.47;;;13.71;80.13
78149;BME280;67396;42.664;23.382;2023-05-27T03:36:54;94951.28;;;13.60;81.03
78149;BME280;67396;42.664;23.382;2023-05-27T03:39:20;94954.00;;;13.64;81.32
78149;BME280;67396;42.664;23.382;2023-05-27T03:41:46;94956.09;;;13.49;81.91
78149;BME280;67396;42.664;23.382;2023-05-27T03:44:12;94958.94;;;13.35;82.82
78149;BME280;67396;42.664;23.382;2023-05-27T03:46:37;94952.63;;;13.34;83.07
78149;BME280;67396;42.664;23.382;2023-05-27T03:49:03;94958.06;;;13.48;82.74
78149;BME280;67396;42.664;23.382;2023-05-27T03:51:28;94955.25;;;13.55;82.56
78149;BME280;67396;42.664;23.382;2023-05-27T03:53:54;94963.06;;;13.64;82.58
78149;BME280;67396;42.664;23.382;2023-05-27T03:56:19;94954.31;;;13.76;81.80
78149;BME280;67396;42.664;23.382;2023-05-27T03:58:45;94960.56;;;13.84;81.75
78149;BME280;67396;42.664;23.382;2023-05-27T04:01:11;94963.66;;;13.93;81.60
78149;BME280;67396;42.664;23.382;2023-05-27T04:03:37;94956.97;;;13.90;81.90
78149;BME280;67396;42.664;23.382;2023-05-27T04:06:04;94965.72;;;13.82;81.77
78149;BME280;67396;42.664;23.382;2023-05-27T04:08:30;94962.81;;;14.00;81.27
78149;BME280;67396;42.664;23.382;2023-05-27T04:10:57;94959.63;;;14.05;80.75
78149;BME280;67396;42.664;23.382;2023-05-27T04:13:23;94957.19;;;14.14;80.48
78149;BME280;67396;42.664;23.382;2023-05-27T04:15:48;94966.06;;;14.36;79.19
78149;BME280;67396;42.664;23.382;2023-05-27T04:18:14;94960.53;;;14.39;79.12
78149;BME280;67396;42.664;23.382;2023-05-27T04:20:41;94960.75;;;14.59;78.05
78149;BME280;67396;42.664;23.382;2023-05-27T04:23:08;94961.44;;;14.66;77.53
78149;BME280;67396;42.664;23.382;2023-05-27T04:25:34;94961.00;;;14.72;77.60
78149;BME280;67396;42.664;23.382;2023-05-27T04:28:01;94962.06;;;14.81;76.98
78149;BME280;67396;42.664;23.382;2023-05-27T04:30:29;94953.91;;;14.71;77.39
78149;BME280;67396;42.664;23.382;2023-05-27T04:32:55;94958.72;;;14.63;77.03
78149;BME280;67396;42.664;23.382;2023-05-27T04:35:21;94953.91;;;14.71;77.10
78149;BME280;67396;42.664;23.382;2023-05-27T04:37:47;94956.34;;;14.65;77.18
78149;BME280;67396;42.664;23.382;2023-05-27T04:40:13;94958.09;;;14.45;77.65
78149;BME280;67396;42.664;23.382;2023-05-27T04:42:38;94960.13;;;14.41;77.70
78149;BME280;67396;42.664;23.382;2023-05-27T04:45:05;94961.69;;;14.38;78.29
78149;BME280;67396;42.664;23.382;2023-05-27T04:47:34;94971.19;;;14.37;78.57
78149;BME280;67396;42.664;23.382;2023-05-27T04:50:04;94966.47;;;14.34;79.01
78149;BME280;67396;42.664;23.382;2023-05-27T04:52:30;94967.31;;;14.27;78.86
78149;BME280;67396;42.664;23.382;2023-05-27T04:55:03;94958.31;;;14.20;78.93
78149;BME280;67396;42.664;23.382;2023-05-27T04:57:29;94959.03;;;14.27;78.49
78149;BME280;67396;42.664;23.382;2023-05-27T04:59:54;94961.78;;;14.31;78.73
78149;BME280;67396;42.664;23.382;2023-05-27T05:02:29;94969.59;;;14.40;78.59
78149;BME280;67396;42.664;23.382;2023-05-27T05:05:05;94967.19;;;14.45;78.07
78149;BME280;67396;42.664;23.382;2023-05-27T05:07:32;94967.06;;;14.59;77.30
78149;BME280;67396;42.664;23.382;2023-05-27T05:09:58;94966.31;;;14.52;77.13
78149;BME280;67396;42.664;23.382;2023-05-27T05:12:25;94966.00;;;14.46;78.04
78149;BME280;67396;42.664;23.382;2023-05-27T05:14:51;94968.91;;;14.69;76.72
78149;BME280;67396;42.664;23.382;2023-05-27T05:17:17;94980.53;;;14.88;75.71
78149;BME280;67396;42.664;23.382;2023-05-27T05:19:43;94984.75;;;15.03;74.79
78149;BME280;67396;42.664;23.382;2023-05-27T05:22:09;94977.94;;;15.11;74.52
78149;BME280;67396;42.664;23.382;2023-05-27T05:24:36;94981.50;;;15.08;74.66
78149;BME280;67396;42.664;23.382;2023-05-27T05:27:02;94986.03;;;14.91;74.99
78149;BME280;67396;42.664;23.382;2023-05-27T05:29:27;94980.53;;;14.88;75.01
78149;BME280;67396;42.664;23.382;2023-05-27T05:31:52;94977.16;;;14.73;74.81
78149;BME280;67396;42.664;23.382;2023-05-27T05:34:18;94978.84;;;14.63;75.42
78149;BME280;67396;42.664;23.382;2023-05-27T05:36:43;94981.16;;;14.68;75.48
78149;BME280;67396;42.664;23.382;2023-05-27T05:39:09;94983.88;;;14.72;76.06
78149;BME280;67396;42.664;23.382;2023-05-27T05:41:34;94980.63;;;14.81;75.84
78149;BME280;67396;42.664;23.382;2023-05-27T05:44:00;94983.84;;;14.76;75.77
78149;BME280;67396;42.664;23.382;2023-05-27T05:46:25;94985.78;;;14.79;75.03
78149;BME280;67396;42.664;23.382;2023-05-27T05:48:52;94990.41;;;14.89;75.07
78149;BME280;67396;42.664;23.382;2023-05-27T05:51:18;94990.88;;;14.84;75.17
78149;BME280;67396;42.664;23.382;2023-05-27T05:53:43;94989.00;;;14.74;75.46
78149;BME280;67396;42.664;23.382;2023-05-27T05:56:09;94989.50;;;14.61;75.62
78149;BME280;67396;42.664;23.382;2023-05-27T05:58:34;94995.56;;;14.49;76.10
78149;BME280;67396;42.664;23.382;2023-05-27T06:01:00;94999.47;;;14.52;76.42
78149;BME280;67396;42.664;23.382;2023-05-27T06:03:25;94997.78;;;14.61;76.78
78149;BME280;67396;42.664;23.382;2023-05-27T06:05:51;95000.78;;;14.78;76.36
78149;BME280;67396;42.664;23.382;2023-05-27T06:08:16;95004.16;;;14.96;76.18
78149;BME280;67396;42.664;23.382;2023-05-27T06:10:42;95004.94;;;14.96;76.20
78149;BME280;67396;42.664;23.382;2023-05-27T06:13:08;94999.00;;;14.98;76.27
78149;BME280;67396;42.664;23.382;2023-05-27T06:15:36;95000.94;;;15.01;76.56
78149;BME280;67396;42.664;23.382;2023-05-27T06:18:03;95005.00;;;15.23;75.72
78149;BME280;67396;42.664;23.382;2023-05-27T06:20:29;95020.69;;;15.33;75.08
78149;BME280;67396;42.664;23.382;2023-05-27T06:22:54;95011.31;;;15.58;73.77
78149;BME280;67396;42.664;23.382;2023-05-27T06:25:20;95012.56;;;15.57;73.87
78149;BME280;67396;42.664;23.382;2023-05-27T06:27:46;95011.97;;;15.38;74.07
78149;BME280;67396;42.664;23.382;2023-05-27T06:30:11;95008.84;;;15.33;74.38
78149;BME280;67396;42.664;23.382;2023-05-27T06:32:37;95017.78;;;15.48;74.43
78149;BME280;67396;42.664;23.382;2023-05-27T06:35:02;95025.09;;;15.65;73.87
78149;BME280;67396;42.664;23.382;2023-05-27T06:37:28;95024.31;;;15.64;73.98
78149;BME280;67396;42.664;23.382;2023-05-27T06:39:54;95025.00;;;15.72;73.94
78149;BME280;67396;42.664;23.382;2023-05-27T06:42:19;95023.31;;;15.78;73.71
78149;BME280;67396;42.664;23.382;2023-05-27T06:44:45;95021.63;;;15.84;73.61
78149;BME280;67396;42.664;23.382;2023-05-27T06:47:10;95017.31;;;15.83;73.87
78149;BME280;67396;42.664;23.382;2023-05-27T06:49:36;95024.19;;;15.71;74.29
78149;BME280;67396;42.664;23.382;2023-05-27T06:52:19;95024.19;;;15.71;74.49
78149;BME280;67396;42.664;23.382;2023-05-27T06:54:46;95024.59;;;16.00;72.82
78149;BME280;67396;42.664;23.382;2023-05-27T06:57:12;95026.84;;;16.09;73.21
78149;BME280;67396;42.664;23.382;2023-05-27T06:59:39;95030.13;;;16.00;72.99
78149;BME280;67396;42.664;23.382;2023-05-27T07:02:04;95028.06;;;16.04;73.11
78149;BME280;67396;42.664;23.382;2023-05-27T07:04:30;95029.38;;;15.96;73.56
78149;BME280;67396;42.664;23.382;2023-05-27T07:06:56;95035.41;;;15.91;73.05
78149;BME280;67396;42.664;23.382;2023-05-27T07:09:21;95029.94;;;15.84;73.66
78149;BME280;67396;42.664;23.382;2023-05-27T07:11:47;95032.88;;;15.73;73.80
78149;BME280;67396;42.664;23.382;2023-05-27T07:14:13;95034.06;;;15.72;73.69
78149;BME280;67396;42.664;23.382;2023-05-27T07:16:38;95035.84;;;15.86;73.86
78149;BME280;67396;42.664;23.382;2023-05-27T07:19:07;95035.03;;;15.89;73.62
78149;BME280;67396;42.664;23.382;2023-05-27T07:21:36;95030.91;;;15.74;74.02
78149;BME280;67396;42.664;23.382;2023-05-27T07:24:02;95031.25;;;15.76;72.75
78149;BME280;67396;42.664;23.382;2023-05-27T07:26:31;95037.41;;;15.87;73.19
78149;BME280;67396;42.664;23.382;2023-05-27T07:29:00;95034.81;;;16.03;73.63
78149;BME280;67396;42.664;23.382;2023-05-27T07:31:29;95033.25;;;16.02;73.95
78149;BME280;67396;42.664;23.382;2023-05-27T07:33:55;95042.97;;;16.14;73.54
78149;BME280;67396;42.664;23.382;2023-05-27T07:36:20;95038.22;;;16.14;73.47
78149;BME280;67396;42.664;23.382;2023-05-27T07:38:46;95036.28;;;16.11;72.58
78149;BME280;67396;42.664;23.382;2023-05-27T07:41:12;95031.66;;;16.28;71.46
78149;BME280;67396;42.664;23.382;2023-05-27T07:43:38;95037.41;;;16.41;71.39
78149;BME280;67396;42.664;23.382;2023-05-27T07:46:03;95038.72;;;16.33;71.87
78149;BME280;67396;42.664;23.382;2023-05-27T07:48:29;95044.97;;;16.37;71.44
78149;BME280;67396;42.664;23.382;2023-05-27T07:50:59;95048.56;;;16.61;70.69
78149;BME280;67396;42.664;23.382;2023-05-27T07:53:25;95036.09;;;16.72;70.25
78149;BME280;67396;42.664;23.382;2023-05-27T07:55:50;95038.31;;;16.58;70.32
78149;BME280;67396;42.664;23.382;2023-05-27T07:58:16;95041.59;;;16.52;70.23
78149;BME280;67396;42.664;23.382;2023-05-27T08:00:41;95043.63;;;16.48;70.83
78149;BME280;67396;42.664;23.382;2023-05-27T08:03:06;95041.91;;;16.54;70.39
78149;BME280;67396;42.664;23.382;2023-05-27T08:05:32;95048.06;;;16.69;70.29
78149;BME280;67396;42.664;23.382;2023-05-27T08:07:58;95048.22;;;16.82;69.30
78149;BME280;67396;42.664;23.382;2023-05-27T08:10:25;95043.69;;;16.91;68.24
78149;BME280;67396;42.664;23.382;2023-05-27T08:12:50;95046.28;;;17.02;68.47
78149;BME280;67396;42.664;23.382;2023-05-27T08:15:16;95053.03;;;17.01;68.38
78149;BME280;67396;42.664;23.382;2023-05-27T08:17:42;95047.28;;;17.12;66.95
78149;BME280;67396;42.664;23.382;2023-05-27T08:20:12;95045.22;;;17.16;66.41
78149;BME280;67396;42.664;23.382;2023-05-27T08:22:38;95048.59;;;17.27;65.54
78149;BME280;67396;42.664;23.382;2023-05-27T08:25:04;95050.59;;;17.46;64.76
78149;BME280;67396;42.664;23.382;2023-05-27T08:27:55;95056.22;;;17.62;63.82
78149;BME280;67396;42.664;23.382;2023-05-27T08:30:27;95053.47;;;17.62;63.26
78149;BME280;67396;42.664;23.382;2023-05-27T08:32:53;95052.69;;;17.62;63.67
78149;BME280;67396;42.664;23.382;2023-05-27T08:35:18;95056.00;;;17.53;64.47
78149;BME280;67396;42.664;23.382;2023-05-27T08:37:44;95053.31;;;17.70;62.84
78149;BME280;67396;42.664;23.382;2023-05-27T08:40:13;95058.53;;;17.67;61.55
78149;BME280;67396;42.664;23.382;2023-05-27T08:42:40;95048.69;;;17.63;61.33
78149;BME280;67396;42.664;23.382;2023-05-27T08:45:07;95055.75;;;17.67;60.98
78149;BME280;67396;42.664;23.382;2023-05-27T08:47:34;95054.72;;;17.78;61.43
78149;BME280;67396;42.664;23.382;2023-05-27T08:50:15;95047.38;;;17.87;60.79
78149;BME280;67396;42.664;23.382;2023-05-27T08:52:52;95045.75;;;17.90;60.96
78149;BME280;67396;42.664;23.382;2023-05-27T08:55:21;95042.44;;;17.95;60.62
78149;BME280;67396;42.664;23.382;2023-05-27T08:57:51;95046.78;;;17.96;60.19
78149;BME280;67396;42.664;23.382;2023-05-27T09:00:17;95050.28;;;18.00;60.66
78149;BME280;67396;42.664;23.382;2023-05-27T09:02:43;95044.22;;;18.05;59.91
78149;BME280;67396;42.664;23.382;2023-05-27T09:05:11;95041.94;;;18.00;61.10
78149;BME280;67396;42.664;23.382;2023-05-27T09:07:38;95037.72;;;17.76;62.59
78149;BME280;67396;42.664;23.382;2023-05-27T09:10:04;95037.28;;;17.38;63.18
78149;BME280;67396;42.664;23.382;2023-05-27T09:12:32;95028.53;;;17.39;63.47
78149;BME280;67396;42.664;23.382;2023-05-27T09:14:58;95037.56;;;17.43;63.03
78149;BME280;67396;42.664;23.382;2023-05-27T09:17:24;95033.78;;;17.53;62.77
78149;BME280;67396;42.664;23.382;2023-05-27T09:19:53;95037.56;;;17.43;62.77
78149;BME280;67396;42.664;23.382;2023-05-27T09:22:22;95038.84;;;17.39;63.54
78149;BME280;67396;42.664;23.382;2023-05-27T09:24:49;95036.94;;;17.55;63.44
78149;BME280;67396;42.664;23.382;2023-05-27T09:27:15;95041.19;;;17.80;61.96
78149;BME280;67396;42.664;23.382;2023-05-27T09:29:40;95034.75;;;18.02;60.74
78149;BME280;67396;42.664;23.382;2023-05-27T09:32:06;95027.97;;;18.03;61.46
78149;BME280;67396;42.664;23.382;2023-05-27T09:34:38;95033.97;;;17.66;62.83
78149;BME280;67396;42.664;23.382;2023-05-27T09:37:04;95033.72;;;17.77;62.09
78149;BME280;67396;42.664;23.382;2023-05-27T09:39:32;95028.22;;;17.93;60.86
78149;BME280;67396;42.664;23.382;2023-05-27T09:42:00;95032.25;;;18.08;61.09
78149;BME280;67396;42.664;23.382;2023-05-27T09:44:34;95025.69;;;18.34;58.58
78149;BME280;67396;42.664;23.382;2023-05-27T09:47:03;95024.53;;;18.32;58.39
78149;BME280;67396;42.664;23.382;2023-05-27T09:49:32;95016.03;;;18.39;57.99
78149;BME280;67396;42.664;23.382;2023-05-27T09:52:01;95030.66;;;18.59;57.98
78149;BME280;67396;42.664;23.382;2023-05-27T09:54:27;95016.25;;;18.64;59.05
78149;BME280;67396;42.664;23.382;2023-05-27T09:56:53;95025.94;;;18.89;58.08
78149;BME280;67396;42.664;23.382;2023-05-27T09:59:19;95027.28;;;19.13;56.98
78149;BME280;67396;42.664;23.382;2023-05-27T10:01:46;95017.81;;;19.10;55.89
78149;BME280;67396;42.664;23.382;2023-05-27T10:04:15;95019.53;;;19.21;55.86
78149;BME280;67396;42.664;23.382;2023-05-27T10:06:45;95019.44;;;19.24;56.30
78149;BME280;67396;42.664;23.382;2023-05-27T10:09:11;95015.31;;;19.29;55.54
78149;BME280;67396;42.664;23.382;2023-05-27T10:11:43;95019.53;;;19.21;56.93
78149;BME280;67396;42.664;23.382;2023-05-27T10:14:09;95019.38;;;19.11;56.72
78149;BME280;67396;42.664;23.382;2023-05-27T10:16:37;95011.88;;;19.25;55.44
78149;BME280;67396;42.664;23.382;2023-05-27T10:19:02;95013.91;;;19.37;54.71
78149;BME280;67396;42.664;23.382;2023-05-27T10:21:42;95002.72;;;19.53;54.48
78149;BME280;67396;42.664;23.382;2023-05-27T10:24:10;95008.78;;;19.64;55.00
78149;BME280;67396;42.664;23.382;2023-05-27T10:26:42;95012.13;;;19.59;54.39
78149;BME280;67396;42.664;23.382;2023-05-27T10:29:15;95001.34;;;19.61;54.35
78149;BME280;67396;42.664;23.382;2023-05-27T10:31:52;95000.47;;;19.77;54.38
78149;BME280;67396;42.664;23.382;2023-05-27T10:34:18;95000.69;;;19.82;53.25
78149;BME280;67396;42.664;23.382;2023-05-27T10:36:45;94998.22;;;19.72;52.78
78149;BME280;67396;42.664;23.382;2023-05-27T10:39:15;94990.63;;;19.60;52.94
78149;BME280;67396;42.664;23.382;2023-05-27T10:41:42;94990.94;;;19.49;53.45
78149;BME280;67396;42.664;23.382;2023-05-27T10:44:09;94987.97;;;19.40;54.20
78149;BME280;67396;42.664;23.382;2023-05-27T10:46:42;94989.28;;;19.35;54.56
78149;BME280;67396;42.664;23.382;2023-05-27T10:49:23;94989.94;;;19.27;55.70
78149;BME280;67396;42.664;23.382;2023-05-27T10:51:49;94985.84;;;19.31;54.57
78149;BME280;67396;42.664;23.382;2023-05-27T10:54:15;94985.97;;;19.40;53.88
78149;BME280;67396;42.664;23.382;2023-05-27T10:56:48;94985.06;;;19.31;54.29
78149;BME280;67396;42.664;23.382;2023-05-27T10:59:20;94986.63;;;19.03;55.20
78149;BME280;67396;42.664;23.382;2023-05-27T11:01:51;94980.38;;;18.99;55.33
78149;BME280;67396;42.664;23.382;2023-05-27T11:04:17;94979.84;;;19.04;55.33
78149;BME280;67396;42.664;23.382;2023-05-27T11:06:58;94977.75;;;19.08;55.76
78149;BME280;67396;42.664;23.382;2023-05-27T11:09:27;94970.50;;;19.10;55.96
78149;BME280;67396;42.664;23.382;2023-05-27T11:11:56;94974.34;;;19.16;55.67
78149;BME280;67396;42.664;23.382;2023-05-27T11:14:25;94966.44;;;19.28;55.94
78149;BME280;67396;42.664;23.382;2023-05-27T11:16:50;94976.00;;;19.27;54.62
78149;BME280;67396;42.664;23.382;2023-05-27T11:19:17;94976.00;;;19.27;54.30
78149;BME280;67396;42.664;23.382;2023-05-27T11:21:44;94972.66;;;19.19;54.79
78149;BME280;67396;42.664;23.382;2023-05-27T11:24:19;94970.28;;;19.05;55.16
78149;BME280;67396;42.664;23.382;2023-05-27T11:26:47;94964.16;;;19.10;55.58
78149;BME280;67396;42.664;23.382;2023-05-27T11:29:14;94965.50;;;19.05;54.67
78149;BME280;67396;42.664;23.382;2023-05-27T11:31:40;94962.34;;;19.03;54.17
78149;BME280;67396;42.664;23.382;2023-05-27T11:34:15;94948.69;;;19.09;53.95
78149;BME280;67396;42.664;23.382;2023-05-27T11:36:44;94955.97;;;18.90;56.00
78149;BME280;67396;42.664;23.382;2023-05-27T11:39:12;94951.09;;;18.94;56.30
78149;BME280;67396;42.664;23.382;2023-05-27T11:41:59;94946.09;;;19.02;55.97
78149;BME280;67396;42.664;23.382;2023-05-27T11:44:25;94943.22;;;19.05;54.49
78149;BME280;67396;42.664;23.382;2023-05-27T11:46:58;94930.78;;;19.10;55.32
78149;BME280;67396;42.664;23.382;2023-05-27T11:49:24;94936.25;;;19.26;55.94
78149;BME280;67396;42.664;23.382;2023-05-27T11:51:50;94943.44;;;19.40;54.83
78149;BME280;67396;42.664;23.382;2023-05-27T11:54:26;94933.69;;;19.48;55.07
78149;BME280;67396;42.664;23.382;2023-05-27T11:56:54;94932.81;;;19.51;55.02
78149;BME280;67396;42.664;23.382;2023-05-27T11:59:20;94922.53;;;19.48;54.63
78149;BME280;67396;42.664;23.382;2023-05-27T12:01:47;94922.25;;;19.30;55.80
78149;BME280;67396;42.664;23.382;2023-05-27T12:04:13;94918.03;;;19.38;55.20
78149;BME280;67396;42.664;23.382;2023-05-27T12:06:39;94912.09;;;19.52;55.17
78149;BME280;67396;42.664;23.382;2023-05-27T12:09:06;94907.66;;;19.67;54.94
78149;BME280;67396;42.664;23.382;2023-05-27T12:11:33;94905.63;;;19.80;53.90
78149;BME280;67396;42.664;23.382;2023-05-27T12:13:59;94907.19;;;19.81;52.31
78149;BME280;67396;42.664;23.382;2023-05-27T12:16:25;94908.53;;;19.89;53.74
78149;BME280;67396;42.664;23.382;2023-05-27T12:18:50;94912.09;;;20.03;52.85
78149;BME280;67396;42.664;23.382;2023-05-27T12:21:16;94904.53;;;20.03;53.12
78149;BME280;67396;42.664;23.382;2023-05-27T12:23:42;94904.19;;;20.01;53.34
78149;BME280;67396;42.664;23.382;2023-05-27T12:26:08;94896.94;;;20.04;53.14
78149;BME280;67396;42.664;23.382;2023-05-27T12:28:36;94887.81;;;19.90;53.04
78149;BME280;67396;42.664;23.382;2023-05-27T12:31:02;94882.22;;;19.90;53.59
78149;BME280;67396;42.664;23.382;2023-05-27T12:33:28;94890.69;;;20.00;53.54
78149;BME280;67396;42.664;23.382;2023-05-27T12:35:53;94883.56;;;19.99;53.09
78149;BME280;67396;42.664;23.382;2023-05-27T12:38:19;94879.78;;;19.92;52.78
78149;BME280;67396;42.664;23.382;2023-05-27T12:40:45;94884.13;;;19.81;52.02
78149;BME280;67396;42.664;23.382;2023-05-27T12:43:10;94875.56;;;19.75;51.97
78149;BME280;67396;42.664;23.382;2023-05-27T12:45:36;94867.75;;;19.70;51.20
78149;BME280;67396;42.664;23.382;2023-05-27T12:48:01;94875.34;;;19.57;51.01
78149;BME280;67396;42.664;23.382;2023-05-27T12:50:27;94864.75;;;19.52;51.64
78149;BME280;67396;42.664;23.382;2023-05-27T12:52:53;94861.63;;;19.50;52.23
78149;BME280;67396;42.664;23.382;2023-05-27T12:55:19;94859.19;;;19.52;52.32